createdAt,value
2018-04-20T00:00:18.386Z,13.14
2018-04-20T00:01:18.365Z,13.17
2018-04-20T00:02:18.344Z,13.18
2018-04-20T00:03:18.324Z,13.14
2018-04-20T00:04:18.302Z,13.15
2018-04-20T00:05:18.282Z,13.03
2018-04-20T00:06:18.260Z,13.00
2018-04-20T00:07:18.240Z,13.11
2018-04-20T00:08:18.220Z,12.99
2018-04-20T00:09:18.198Z,12.97
2018-04-20T00:10:18.178Z,13.02
2018-04-20T00:11:18.159Z,13.02
2018-04-20T00:12:18.137Z,13.03
2018-04-20T00:13:18.114Z,13.03
2018-04-20T00:14:18.094Z,12.97
2018-04-20T00:15:18.074Z,13.00
2018-04-20T00:16:18.053Z,12.96
2018-04-20T00:17:18.031Z,12.93
2018-04-20T00:18:18.011Z,13.02
2018-04-20T00:19:17.990Z,12.87
2018-04-20T00:20:17.969Z,12.84
2018-04-20T00:21:17.946Z,12.84
2018-04-20T00:22:17.925Z,12.85
2018-04-20T00:23:17.905Z,12.82
2018-04-20T00:24:17.888Z,12.95
2018-04-20T00:25:17.863Z,12.82
2018-04-20T00:26:17.842Z,12.99
2018-04-20T00:27:17.822Z,12.88
2018-04-20T00:28:17.802Z,12.77
2018-04-20T00:29:17.780Z,12.85
2018-04-20T00:30:17.759Z,12.87
2018-04-20T00:31:17.738Z,12.84
2018-04-20T00:32:17.718Z,12.85
2018-04-20T00:33:17.697Z,12.88
2018-04-20T00:34:17.674Z,12.85
2018-04-20T00:35:17.654Z,12.92
2018-04-20T00:36:17.634Z,12.78
2018-04-20T00:37:18.362Z,12.79
2018-04-20T00:38:17.591Z,12.78
2018-04-20T00:39:17.570Z,12.67
2018-04-20T00:40:17.548Z,12.77
2018-04-20T00:41:17.528Z,12.71
2018-04-20T00:42:17.506Z,12.66
2018-04-20T00:43:17.486Z,12.66
2018-04-20T00:44:17.465Z,12.62
2018-04-20T00:45:17.519Z,12.64
2018-04-20T00:46:17.422Z,12.70
2018-04-20T00:47:17.402Z,12.67
2018-04-20T00:48:17.382Z,12.70
2018-04-20T00:49:17.358Z,12.74
2018-04-20T00:50:17.337Z,12.79
2018-04-20T00:51:17.316Z,12.85
2018-04-20T00:52:17.296Z,12.89
2018-04-20T00:53:17.274Z,12.82
2018-04-20T00:54:17.252Z,12.77
2018-04-20T00:55:17.233Z,12.81
2018-04-20T00:56:17.211Z,12.79
2018-04-20T00:57:17.189Z,12.87
2018-04-20T00:58:17.169Z,12.92
2018-04-20T00:59:17.147Z,12.96
2018-04-20T01:00:17.127Z,12.92
2018-04-20T01:01:17.112Z,12.99
2018-04-20T01:02:17.083Z,13.11
2018-04-20T01:03:17.063Z,13.21
2018-04-20T01:04:17.043Z,13.24
2018-04-20T01:05:17.024Z,13.32
2018-04-20T01:06:17.004Z,13.20
2018-04-20T01:07:16.982Z,13.27
2018-04-20T01:08:16.958Z,13.20
2018-04-20T01:09:16.937Z,13.11
2018-04-20T01:10:16.916Z,13.12
2018-04-20T01:11:16.893Z,13.04
2018-04-20T01:12:16.875Z,13.14
2018-04-20T01:13:16.852Z,13.09
2018-04-20T01:14:16.830Z,13.14
2018-04-20T01:15:16.810Z,13.36
2018-04-20T01:16:16.789Z,13.38
2018-04-20T01:17:16.767Z,13.37
2018-04-20T01:18:16.746Z,13.30
2018-04-20T01:19:16.725Z,13.20
2018-04-20T01:20:16.706Z,13.17
2018-04-20T01:21:16.684Z,13.06
2018-04-20T01:22:16.663Z,12.99
2018-04-20T01:23:16.642Z,13.00
2018-04-20T01:24:16.623Z,12.95
2018-04-20T01:25:16.600Z,12.97
2018-04-20T01:26:16.581Z,12.96
2018-04-20T01:27:16.559Z,12.84
2018-04-20T01:28:16.537Z,12.87
2018-04-20T01:29:16.516Z,12.96
2018-04-20T01:30:16.494Z,12.99
2018-04-20T01:31:16.474Z,12.81
2018-04-20T01:32:16.452Z,12.81
2018-04-20T01:33:16.432Z,12.88
2018-04-20T01:34:16.411Z,12.74
2018-04-20T01:35:16.395Z,12.69
2018-04-20T01:36:16.371Z,12.69
2018-04-20T01:37:16.349Z,12.63
2018-04-20T01:38:16.327Z,12.62
2018-04-20T01:39:16.305Z,12.64
2018-04-20T01:40:16.286Z,12.64
2018-04-20T01:41:16.263Z,12.62
2018-04-20T01:42:16.243Z,12.69
2018-04-20T01:43:16.222Z,12.66
2018-04-20T01:44:16.200Z,12.57
2018-04-20T01:45:16.179Z,12.46
2018-04-20T01:46:16.157Z,12.54
2018-04-20T01:47:16.137Z,12.48
2018-04-20T01:48:16.116Z,12.45
2018-04-20T01:49:16.095Z,12.49
2018-04-20T01:50:16.083Z,12.48
2018-04-20T01:51:16.053Z,12.38
2018-04-20T01:52:16.032Z,12.39
2018-04-20T01:53:16.012Z,12.48
2018-04-20T01:54:15.989Z,12.38
2018-04-20T01:55:15.968Z,12.37
2018-04-20T01:56:15.946Z,12.34
2018-04-20T01:57:15.924Z,12.42
2018-04-20T01:58:15.904Z,12.39
2018-04-20T01:59:15.883Z,12.26
2018-04-20T02:00:15.860Z,12.27
2018-04-20T02:01:15.840Z,12.15
2018-04-20T02:02:15.818Z,12.27
2018-04-20T02:03:15.798Z,12.21
2018-04-20T02:04:15.776Z,12.21
2018-04-20T02:05:15.755Z,12.26
2018-04-20T02:06:15.735Z,12.23
2018-04-20T02:07:15.713Z,12.29
2018-04-20T02:08:15.695Z,12.24
2018-04-20T02:09:15.671Z,12.23
2018-04-20T02:10:15.650Z,12.20
2018-04-20T02:11:15.628Z,12.21
2018-04-20T02:12:15.614Z,12.21
2018-04-20T02:13:15.651Z,12.29
2018-04-20T02:14:15.564Z,12.27
2018-04-20T02:15:15.542Z,12.08
2018-04-20T02:16:15.522Z,11.94
2018-04-20T02:17:15.499Z,11.90
2018-04-20T02:18:15.480Z,11.75
2018-04-20T02:19:15.458Z,11.67
2018-04-20T02:20:15.439Z,11.62
2018-04-20T02:21:15.415Z,11.52
2018-04-20T02:22:15.394Z,11.46
2018-04-20T02:23:15.371Z,11.50
2018-04-20T02:24:15.350Z,11.36
2018-04-20T02:25:15.328Z,11.36
2018-04-20T02:26:15.308Z,11.41
2018-04-20T02:27:15.286Z,11.49
2018-04-20T02:28:15.266Z,11.39
2018-04-20T02:29:15.244Z,11.57
2018-04-20T02:30:15.222Z,11.46
2018-04-20T02:31:15.201Z,11.44
2018-04-20T02:32:15.191Z,11.50
2018-04-20T02:33:15.156Z,11.59
2018-04-20T02:34:15.136Z,11.53
2018-04-20T02:35:15.113Z,11.59
2018-04-20T02:36:15.120Z,11.61
2018-04-20T02:37:15.073Z,11.64
2018-04-20T02:38:15.048Z,11.50
2018-04-20T02:39:15.027Z,11.50
2018-04-20T02:40:15.006Z,11.47
2018-04-20T02:41:14.983Z,11.47
2018-04-20T02:42:14.964Z,11.52
2018-04-20T02:43:14.940Z,11.50
2018-04-20T02:44:14.919Z,11.54
2018-04-20T02:45:14.897Z,11.57
2018-04-20T02:46:14.874Z,11.38
2018-04-20T02:47:14.856Z,11.41
2018-04-20T02:48:14.832Z,11.47
2018-04-20T02:49:14.810Z,11.34
2018-04-20T02:50:14.789Z,11.35
2018-04-20T02:51:14.765Z,11.38
2018-04-20T02:52:14.745Z,11.47
2018-04-20T02:53:14.723Z,11.46
2018-04-20T02:54:14.702Z,11.46
2018-04-20T02:55:14.680Z,11.47
2018-04-20T02:56:14.658Z,11.56
2018-04-20T02:57:14.637Z,11.53
2018-04-20T02:58:14.613Z,11.62
2018-04-20T02:59:14.595Z,11.68
2018-04-20T03:00:14.570Z,11.67
2018-04-20T03:01:14.549Z,11.64
2018-04-20T03:02:14.527Z,11.68
2018-04-20T03:03:14.505Z,11.59
2018-04-20T03:04:14.484Z,11.70
2018-04-20T03:05:14.460Z,11.70
2018-04-20T03:06:14.443Z,11.68
2018-04-20T03:07:14.424Z,11.64
2018-04-20T03:08:14.400Z,11.64
2018-04-20T03:09:14.375Z,11.56
2018-04-20T03:10:14.351Z,11.52
2018-04-20T03:11:14.328Z,11.47
2018-04-20T03:12:14.307Z,11.38
2018-04-20T03:13:14.288Z,11.35
2018-04-20T03:14:15.763Z,11.39
2018-04-20T03:15:14.241Z,11.34
2018-04-20T03:16:14.221Z,11.44
2018-04-20T03:17:14.197Z,11.39
2018-04-20T03:18:14.177Z,11.32
2018-04-20T03:19:14.154Z,11.32
2018-04-20T03:20:14.134Z,11.31
2018-04-20T03:21:14.112Z,11.35
2018-04-20T03:22:14.090Z,11.27
2018-04-20T03:23:14.069Z,11.21
2018-04-20T03:24:14.046Z,11.21
2018-04-20T03:25:14.024Z,11.20
2018-04-20T03:26:14.002Z,11.14
2018-04-20T03:27:13.981Z,11.21
2018-04-20T03:28:13.958Z,11.25
2018-04-20T03:29:13.936Z,11.32
2018-04-20T03:30:13.916Z,11.25
2018-04-20T03:31:13.893Z,11.29
2018-04-20T03:32:13.872Z,11.29
2018-04-20T03:33:13.848Z,11.17
2018-04-20T03:34:13.826Z,11.10
2018-04-20T03:35:13.807Z,11.13
2018-04-20T03:36:13.784Z,11.11
2018-04-20T03:37:13.761Z,11.03
2018-04-20T03:38:13.741Z,10.99
2018-04-20T03:39:13.717Z,10.98
2018-04-20T03:40:13.696Z,10.99
2018-04-20T03:41:13.674Z,10.99
2018-04-20T03:42:13.653Z,10.99
2018-04-20T03:43:13.631Z,10.98
2018-04-20T03:44:13.609Z,10.98
2018-04-20T03:45:13.588Z,10.94
2018-04-20T03:46:13.568Z,11.09
2018-04-20T03:47:13.546Z,11.09
2018-04-20T03:48:13.522Z,11.06
2018-04-20T03:49:13.498Z,11.02
2018-04-20T03:50:13.478Z,10.99
2018-04-20T03:51:13.456Z,10.95
2018-04-20T03:52:13.432Z,10.76
2018-04-20T03:53:13.414Z,10.78
2018-04-20T03:54:13.388Z,10.74
2018-04-20T03:55:13.366Z,10.74
2018-04-20T03:56:13.348Z,10.76
2018-04-20T03:57:13.322Z,10.78
2018-04-20T03:58:13.301Z,10.59
2018-04-20T03:59:13.277Z,10.60
2018-04-20T04:00:13.260Z,10.60
2018-04-20T04:01:13.235Z,10.52
2018-04-20T04:02:13.211Z,10.58
2018-04-20T04:03:13.190Z,10.65
2018-04-20T04:04:13.175Z,10.76
2018-04-20T04:05:13.148Z,10.70
2018-04-20T04:06:13.124Z,10.74
2018-04-20T04:07:13.105Z,10.71
2018-04-20T04:08:13.083Z,10.71
2018-04-20T04:09:13.059Z,10.74
2018-04-20T04:10:13.036Z,10.80
2018-04-20T04:11:13.013Z,10.63
2018-04-20T04:12:13.051Z,10.63
2018-04-20T04:13:12.967Z,10.68
2018-04-20T04:14:12.948Z,10.73
2018-04-20T04:15:12.925Z,10.77
2018-04-20T04:16:12.902Z,10.80
2018-04-20T04:17:12.880Z,10.86
2018-04-20T04:18:12.858Z,10.78
2018-04-20T04:19:12.839Z,10.91
2018-04-20T04:20:12.814Z,10.81
2018-04-20T04:21:12.790Z,10.91
2018-04-20T04:22:12.768Z,11.01
2018-04-20T04:23:12.747Z,10.76
2018-04-20T04:24:12.724Z,10.89
2018-04-20T04:25:12.701Z,10.89
2018-04-20T04:26:12.679Z,10.84
2018-04-20T04:27:12.656Z,10.99
2018-04-20T04:28:12.635Z,10.91
2018-04-20T04:29:14.867Z,11.02
2018-04-20T04:30:12.592Z,10.95
2018-04-20T04:31:12.571Z,11.01
2018-04-20T04:32:12.547Z,11.21
2018-04-20T04:33:12.524Z,10.98
2018-04-20T04:34:12.502Z,11.24
2018-04-20T04:35:12.480Z,11.35
2018-04-20T04:36:12.458Z,11.36
2018-04-20T04:37:12.435Z,11.41
2018-04-20T04:38:12.412Z,11.19
2018-04-20T04:39:12.392Z,11.43
2018-04-20T04:40:12.370Z,11.41
2018-04-20T04:41:12.347Z,11.49
2018-04-20T04:42:12.325Z,11.44
2018-04-20T04:43:12.301Z,11.41
2018-04-20T04:44:12.282Z,11.43
2018-04-20T04:45:12.257Z,11.28
2018-04-20T04:46:12.236Z,11.24
2018-04-20T04:47:12.225Z,11.29
2018-04-20T04:48:12.193Z,11.32
2018-04-20T04:49:12.170Z,11.24
2018-04-20T04:50:12.148Z,11.34
2018-04-20T04:51:12.125Z,11.27
2018-04-20T04:52:12.103Z,11.34
2018-04-20T04:53:12.082Z,11.27
2018-04-20T04:54:12.065Z,11.34
2018-04-20T04:55:12.038Z,11.36
2018-04-20T04:56:12.046Z,11.29
2018-04-20T04:57:11.995Z,11.28
2018-04-20T04:58:11.972Z,11.36
2018-04-20T04:59:11.949Z,11.21
2018-04-20T05:00:11.929Z,11.24
2018-04-20T05:01:11.905Z,11.29
2018-04-20T05:02:11.883Z,11.27
2018-04-20T05:03:11.865Z,11.27
2018-04-20T05:04:11.840Z,11.53
2018-04-20T05:05:11.817Z,11.28
2018-04-20T05:06:11.796Z,11.59
2018-04-20T05:07:11.774Z,11.43
2018-04-20T05:08:11.753Z,11.31
2018-04-20T05:09:11.786Z,11.29
2018-04-20T05:10:11.709Z,11.34
2018-04-20T05:11:11.687Z,11.34
2018-04-20T05:12:11.664Z,11.41
2018-04-20T05:13:11.642Z,11.41
2018-04-20T05:14:11.624Z,11.61
2018-04-20T05:15:11.599Z,11.68
2018-04-20T05:16:11.576Z,11.77
2018-04-20T05:17:11.557Z,11.80
2018-04-20T05:18:11.533Z,11.80
2018-04-20T05:19:11.511Z,11.32
2018-04-20T05:20:11.490Z,11.25
2018-04-20T05:21:11.466Z,11.29
2018-04-20T05:22:11.445Z,11.28
2018-04-20T05:23:11.423Z,11.31
2018-04-20T05:24:11.403Z,11.28
2018-04-20T05:25:11.380Z,11.41
2018-04-20T05:26:11.359Z,11.35
2018-04-20T05:27:11.336Z,11.46
2018-04-20T05:28:11.315Z,11.35
2018-04-20T05:29:11.292Z,11.31
2018-04-20T05:30:11.270Z,11.34
2018-04-20T05:31:11.251Z,11.36
2018-04-20T05:32:11.226Z,11.44
2018-04-20T05:33:11.203Z,11.35
2018-04-20T05:34:11.183Z,11.46
2018-04-20T05:35:11.164Z,11.36
2018-04-20T05:36:11.142Z,11.47
2018-04-20T05:37:11.127Z,11.46
2018-04-20T05:38:11.096Z,11.49
2018-04-20T05:39:11.074Z,11.53
2018-04-20T05:40:11.056Z,11.47
2018-04-20T05:41:11.032Z,11.54
2018-04-20T05:42:11.012Z,11.56
2018-04-20T05:43:10.989Z,11.61
2018-04-20T05:44:10.969Z,11.57
2018-04-20T05:45:10.946Z,11.64
2018-04-20T05:46:10.922Z,11.67
2018-04-20T05:47:10.901Z,11.62
2018-04-20T05:48:10.882Z,11.59
2018-04-20T05:49:10.858Z,11.80
2018-04-20T05:50:10.837Z,11.75
2018-04-20T05:51:10.815Z,11.83
2018-04-20T05:52:10.793Z,11.80
2018-04-20T05:53:10.772Z,11.87
2018-04-20T05:54:10.751Z,11.87
2018-04-20T05:55:10.729Z,11.80
2018-04-20T05:56:10.707Z,11.89
2018-04-20T05:57:10.685Z,11.89
2018-04-20T05:58:10.663Z,12.01
2018-04-20T05:59:10.643Z,12.01
2018-04-20T06:00:10.622Z,12.05
2018-04-20T06:01:10.696Z,12.06
2018-04-20T06:02:10.578Z,12.15
2018-04-20T06:03:10.558Z,12.13
2018-04-20T06:04:10.542Z,12.23
2018-04-20T06:05:10.516Z,12.24
2018-04-20T06:06:10.493Z,12.37
2018-04-20T06:07:10.471Z,12.41
2018-04-20T06:08:10.451Z,12.34
2018-04-20T06:09:10.429Z,12.51
2018-04-20T06:10:10.410Z,12.51
2018-04-20T06:11:10.386Z,12.49
2018-04-20T06:12:10.366Z,12.49
2018-04-20T06:13:10.345Z,12.59
2018-04-20T06:14:10.362Z,12.62
2018-04-20T06:15:10.303Z,12.64
2018-04-20T06:16:10.281Z,12.64
2018-04-20T06:17:10.260Z,12.66
2018-04-20T06:18:10.238Z,12.77
2018-04-20T06:19:10.219Z,12.79
2018-04-20T06:20:10.197Z,12.88
2018-04-20T06:21:10.177Z,13.00
2018-04-20T06:22:10.155Z,12.99
2018-04-20T06:23:10.133Z,12.96
2018-04-20T06:24:10.113Z,13.02
2018-04-20T06:25:10.090Z,13.02
2018-04-20T06:26:10.070Z,13.14
2018-04-20T06:27:10.050Z,13.15
2018-04-20T06:28:10.030Z,13.22
2018-04-20T06:29:10.010Z,13.32
2018-04-20T06:30:09.988Z,13.36
2018-04-20T06:31:13.720Z,13.40
2018-04-20T06:32:09.945Z,13.49
2018-04-20T06:33:09.924Z,13.44
2018-04-20T06:34:09.902Z,13.49
2018-04-20T06:35:09.881Z,13.62
2018-04-20T06:36:09.862Z,13.58
2018-04-20T06:37:09.839Z,13.59
2018-04-20T06:38:09.820Z,13.69
2018-04-20T06:39:09.798Z,13.71
2018-04-20T06:40:09.778Z,13.71
2018-04-20T06:41:09.756Z,13.83
2018-04-20T06:42:09.737Z,13.91
2018-04-20T06:43:09.717Z,13.96
2018-04-20T06:44:09.695Z,13.99
2018-04-20T06:45:09.673Z,13.95
2018-04-20T06:46:09.657Z,14.12
2018-04-20T06:47:09.633Z,14.12
2018-04-20T06:48:09.613Z,14.14
2018-04-20T06:49:09.592Z,14.16
2018-04-20T06:50:09.575Z,14.19
2018-04-20T06:51:09.552Z,14.24
2018-04-20T06:52:09.532Z,14.27
2018-04-20T06:53:09.510Z,14.24
2018-04-20T06:54:09.490Z,14.25
2018-04-20T06:55:09.469Z,14.20
2018-04-20T06:56:09.449Z,14.31
2018-04-20T06:57:09.428Z,14.32
2018-04-20T06:58:13.161Z,14.34
2018-04-20T06:59:09.387Z,14.37
2018-04-20T07:00:09.368Z,14.42
2018-04-20T07:01:09.346Z,14.32
2018-04-20T07:02:09.326Z,14.47
2018-04-20T07:03:09.308Z,14.43
2018-04-20T07:04:09.291Z,14.60
2018-04-20T07:05:09.265Z,14.54
2018-04-20T07:06:09.246Z,14.62
2018-04-20T07:07:09.226Z,14.78
2018-04-20T07:08:09.206Z,14.84
2018-04-20T07:09:09.185Z,14.99
2018-04-20T07:10:09.166Z,15.02
2018-04-20T07:11:09.145Z,14.95
2018-04-20T07:12:09.137Z,15.13
2018-04-20T07:13:09.103Z,14.99
2018-04-20T07:14:09.085Z,15.11
2018-04-20T07:15:09.067Z,15.11
2018-04-20T07:16:09.045Z,15.02
2018-04-20T07:17:09.031Z,15.05
2018-04-20T07:18:09.004Z,15.02
2018-04-20T07:19:08.983Z,15.15
2018-04-20T07:20:08.970Z,15.13
2018-04-20T07:21:08.944Z,15.21
2018-04-20T07:22:08.925Z,15.23
2018-04-20T07:23:08.904Z,15.36
2018-04-20T07:24:08.885Z,15.36
2018-04-20T07:25:08.864Z,15.36
2018-04-20T07:26:09.596Z,15.39
2018-04-20T07:27:08.824Z,15.42
2018-04-20T07:28:08.806Z,15.48
2018-04-20T07:29:08.785Z,15.56
2018-04-20T07:30:08.841Z,15.59
2018-04-20T07:31:08.745Z,15.67
2018-04-20T07:32:08.725Z,15.76
2018-04-20T07:33:08.708Z,15.79
2018-04-20T07:34:08.685Z,15.82
2018-04-20T07:35:08.665Z,15.75
2018-04-20T07:36:08.651Z,15.85
2018-04-20T07:37:08.627Z,15.85
2018-04-20T07:38:08.607Z,15.86
2018-04-20T07:39:08.592Z,16.07
2018-04-20T07:40:08.567Z,16.03
2018-04-20T07:41:08.547Z,16.15
2018-04-20T07:42:08.529Z,16.33
2018-04-20T07:43:08.510Z,16.34
2018-04-20T07:44:08.489Z,16.59
2018-04-20T07:45:08.471Z,16.67
2018-04-20T07:46:08.449Z,16.71
2018-04-20T07:47:08.430Z,16.68
2018-04-20T07:48:09.163Z,16.73
2018-04-20T07:49:08.390Z,16.81
2018-04-20T07:50:08.373Z,16.77
2018-04-20T07:51:08.352Z,16.78
2018-04-20T07:52:08.334Z,16.85
2018-04-20T07:53:08.314Z,16.88
2018-04-20T07:54:08.298Z,16.95
2018-04-20T07:55:08.276Z,16.90
2018-04-20T07:56:08.258Z,17.00
2018-04-20T07:57:08.238Z,17.03
2018-04-20T07:58:08.218Z,17.06
2018-04-20T07:59:08.199Z,17.07
2018-04-20T08:00:08.181Z,17.13
2018-04-20T08:01:08.161Z,17.08
2018-04-20T08:02:08.141Z,17.10
2018-04-20T08:03:08.170Z,17.08
2018-04-20T08:04:08.105Z,17.04
2018-04-20T08:05:08.088Z,16.89
2018-04-20T08:06:08.066Z,16.99
2018-04-20T08:07:08.048Z,16.99
2018-04-20T08:08:08.029Z,16.95
2018-04-20T08:09:08.008Z,17.10
2018-04-20T08:10:07.991Z,17.14
2018-04-20T08:11:07.971Z,17.26
2018-04-20T08:12:07.953Z,17.44
2018-04-20T08:13:07.932Z,17.43
2018-04-20T08:14:07.915Z,17.38
2018-04-20T08:15:07.895Z,17.47
2018-04-20T08:16:07.878Z,17.53
2018-04-20T08:17:07.858Z,17.59
2018-04-20T08:18:07.838Z,17.64
2018-04-20T08:19:07.824Z,17.73
2018-04-20T08:20:13.828Z,17.85
2018-04-20T08:21:07.782Z,17.89
2018-04-20T08:22:07.764Z,17.94
2018-04-20T08:23:07.746Z,17.88
2018-04-20T08:24:07.728Z,18.02
2018-04-20T08:25:07.709Z,17.88
2018-04-20T08:26:07.691Z,17.88
2018-04-20T08:27:07.673Z,17.88
2018-04-20T08:28:07.655Z,17.85
2018-04-20T08:29:07.635Z,17.94
2018-04-20T08:30:07.616Z,18.07
2018-04-20T08:31:07.598Z,18.12
2018-04-20T08:32:07.585Z,18.19
2018-04-20T08:33:07.562Z,18.21
2018-04-20T08:34:07.546Z,18.00
2018-04-20T08:35:07.524Z,17.89
2018-04-20T08:36:07.509Z,17.84
2018-04-20T08:37:07.489Z,17.95
2018-04-20T08:38:07.473Z,18.06
2018-04-20T08:39:07.451Z,18.12
2018-04-20T08:40:07.438Z,18.24
2018-04-20T08:41:07.415Z,18.43
2018-04-20T08:42:07.409Z,18.50
2018-04-20T08:43:07.378Z,18.54
2018-04-20T08:44:07.360Z,18.62
2018-04-20T08:45:07.341Z,18.64
2018-04-20T08:46:07.324Z,18.72
2018-04-20T08:47:09.558Z,18.68
2018-04-20T08:48:07.290Z,18.84
2018-04-20T08:49:07.270Z,18.74
2018-04-20T08:50:07.251Z,18.74
2018-04-20T08:51:07.233Z,18.57
2018-04-20T08:52:07.216Z,18.65
2018-04-20T08:53:07.198Z,18.77
2018-04-20T08:54:07.180Z,18.70
2018-04-20T08:55:07.161Z,18.83
2018-04-20T08:56:07.145Z,18.94
2018-04-20T08:57:07.125Z,18.95
2018-04-20T08:58:07.107Z,18.82
2018-04-20T08:59:07.092Z,18.77
2018-04-20T09:00:07.073Z,18.74
2018-04-20T09:01:07.053Z,18.94
2018-04-20T09:02:07.036Z,19.08
2018-04-20T09:03:07.023Z,19.14
2018-04-20T09:04:07.001Z,19.18
2018-04-20T09:05:06.984Z,19.31
2018-04-20T09:06:06.964Z,19.35
2018-04-20T09:07:06.948Z,19.48
2018-04-20T09:08:06.930Z,19.60
2018-04-20T09:09:06.916Z,19.57
2018-04-20T09:10:06.894Z,19.60
2018-04-20T09:11:06.876Z,19.69
2018-04-20T09:12:06.860Z,19.58
2018-04-20T09:13:06.843Z,19.66
2018-04-20T09:14:06.828Z,19.75
2018-04-20T09:15:06.807Z,19.72
2018-04-20T09:16:06.790Z,19.75
2018-04-20T09:17:06.772Z,19.79
2018-04-20T09:18:06.757Z,19.83
2018-04-20T09:19:06.739Z,19.93
2018-04-20T09:20:06.722Z,19.91
2018-04-20T09:21:06.702Z,19.70
2018-04-20T09:22:06.689Z,19.72
2018-04-20T09:23:06.669Z,19.75
2018-04-20T09:24:06.651Z,19.84
2018-04-20T09:25:06.633Z,19.61
2018-04-20T09:26:06.618Z,19.79
2018-04-20T09:27:06.601Z,19.73
2018-04-20T09:28:06.586Z,19.78
2018-04-20T09:29:06.566Z,19.69
2018-04-20T09:30:07.299Z,19.87
2018-04-20T09:31:06.531Z,20.05
2018-04-20T09:32:06.515Z,20.16
2018-04-20T09:33:06.497Z,20.15
2018-04-20T09:34:06.481Z,20.16
2018-04-20T09:35:06.464Z,20.21
2018-04-20T09:36:06.447Z,20.27
2018-04-20T09:37:06.428Z,20.28
2018-04-20T09:38:06.412Z,20.35
2018-04-20T09:39:06.396Z,20.41
2018-04-20T09:40:06.379Z,20.56
2018-04-20T09:41:06.362Z,20.53
2018-04-20T09:42:06.343Z,20.64
2018-04-20T09:43:06.327Z,20.64
2018-04-20T09:44:06.309Z,20.66
2018-04-20T09:45:06.291Z,20.64
2018-04-20T09:46:06.276Z,20.53
2018-04-20T09:47:06.259Z,20.66
2018-04-20T09:48:06.241Z,20.53
2018-04-20T09:49:06.224Z,20.68
2018-04-20T09:50:06.207Z,20.66
2018-04-20T09:51:06.190Z,20.80
2018-04-20T09:52:06.176Z,20.89
2018-04-20T09:53:06.158Z,20.99
2018-04-20T09:54:06.141Z,21.01
2018-04-20T09:55:06.123Z,21.02
2018-04-20T09:56:09.861Z,20.91
2018-04-20T09:57:06.094Z,21.04
2018-04-20T09:58:06.074Z,21.05
2018-04-20T09:59:06.058Z,21.13
2018-04-20T10:00:06.042Z,21.21
2018-04-20T10:01:06.023Z,21.23
2018-04-20T10:02:06.010Z,21.30
2018-04-20T10:03:05.991Z,21.35
2018-04-20T10:04:05.977Z,21.46
2018-04-20T10:05:05.957Z,21.39
2018-04-20T10:06:05.941Z,21.53
2018-04-20T10:07:05.925Z,21.54
2018-04-20T10:08:05.910Z,21.36
2018-04-20T10:09:05.892Z,21.29
2018-04-20T10:10:05.882Z,21.44
2018-04-20T10:11:05.861Z,21.53
2018-04-20T10:12:05.845Z,21.54
2018-04-20T10:13:05.827Z,21.53
2018-04-20T10:14:05.812Z,21.51
2018-04-20T10:15:05.796Z,21.53
2018-04-20T10:16:05.779Z,21.56
2018-04-20T10:17:05.765Z,21.64
2018-04-20T10:18:05.747Z,21.82
2018-04-20T10:19:05.791Z,21.81
2018-04-20T10:20:05.714Z,21.83
2018-04-20T10:21:05.698Z,21.94
2018-04-20T10:22:05.681Z,22.04
2018-04-20T10:23:05.664Z,22.12
2018-04-20T10:24:05.648Z,22.25
2018-04-20T10:25:05.634Z,22.25
2018-04-20T10:26:05.617Z,22.17
2018-04-20T10:27:05.602Z,22.19
2018-04-20T10:28:06.336Z,22.16
2018-04-20T10:29:05.569Z,22.22
2018-04-20T10:30:05.553Z,22.20
2018-04-20T10:31:05.541Z,22.28
2018-04-20T10:32:05.520Z,22.38
2018-04-20T10:33:05.527Z,22.32
2018-04-20T10:34:05.495Z,22.50
2018-04-20T10:35:05.472Z,22.49
2018-04-20T10:36:05.457Z,22.41
2018-04-20T10:37:05.439Z,22.23
2018-04-20T10:38:05.424Z,22.14
2018-04-20T10:39:05.409Z,22.31
2018-04-20T10:40:05.396Z,22.46
2018-04-20T10:41:05.416Z,22.32
2018-04-20T10:42:05.360Z,22.27
2018-04-20T10:43:05.347Z,22.37
2018-04-20T10:44:05.329Z,22.54
2018-04-20T10:45:05.311Z,22.53
2018-04-20T10:46:05.297Z,22.39
2018-04-20T10:47:05.280Z,22.27
2018-04-20T10:48:05.267Z,22.35
2018-04-20T10:49:05.248Z,22.59
2018-04-20T10:50:05.233Z,22.90
2018-04-20T10:51:05.218Z,22.83
2018-04-20T10:52:05.206Z,22.68
2018-04-20T10:53:05.189Z,22.60
2018-04-20T10:54:05.169Z,22.59
2018-04-20T10:55:05.154Z,22.65
2018-04-20T10:56:05.139Z,22.57
2018-04-20T10:57:05.121Z,22.69
2018-04-20T10:58:05.106Z,22.56
2018-04-20T10:59:05.092Z,22.53
2018-04-20T11:00:05.076Z,22.64
2018-04-20T11:01:05.064Z,22.77
2018-04-20T11:02:05.045Z,22.53
2018-04-20T11:03:05.028Z,22.62
2018-04-20T11:04:05.013Z,22.78
2018-04-20T11:05:04.996Z,22.89
2018-04-20T11:06:04.982Z,22.89
2018-04-20T11:07:04.966Z,22.78
2018-04-20T11:08:04.950Z,22.80
2018-04-20T11:09:04.935Z,22.92
2018-04-20T11:10:04.918Z,23.14
2018-04-20T11:11:04.903Z,23.14
2018-04-20T11:12:04.889Z,23.19
2018-04-20T11:13:04.872Z,23.38
2018-04-20T11:14:04.857Z,23.34
2018-04-20T11:15:04.846Z,23.47
2018-04-20T11:16:04.828Z,23.58
2018-04-20T11:17:04.810Z,23.50
2018-04-20T11:18:04.796Z,23.42
2018-04-20T11:19:04.780Z,23.47
2018-04-20T11:20:04.766Z,23.62
2018-04-20T11:21:04.749Z,23.71
2018-04-20T11:22:04.735Z,23.77
2018-04-20T11:23:04.719Z,23.85
2018-04-20T11:24:04.704Z,23.79
2018-04-20T11:25:04.689Z,23.90
2018-04-20T11:26:04.677Z,23.76
2018-04-20T11:27:04.660Z,23.82
2018-04-20T11:28:04.644Z,23.85
2018-04-20T11:29:04.628Z,23.97
2018-04-20T11:30:04.664Z,23.94
2018-04-20T11:31:04.600Z,23.92
2018-04-20T11:32:04.584Z,23.95
2018-04-20T11:33:04.570Z,23.90
2018-04-20T11:34:04.555Z,23.82
2018-04-20T11:35:04.539Z,23.90
2018-04-20T11:36:04.526Z,23.70
2018-04-20T11:37:04.510Z,23.75
2018-04-20T11:38:04.494Z,23.95
2018-04-20T11:39:04.481Z,23.94
2018-04-20T11:40:04.466Z,24.01
2018-04-20T11:41:04.450Z,24.05
2018-04-20T11:42:04.436Z,24.19
2018-04-20T11:43:04.423Z,24.22
2018-04-20T11:44:04.408Z,24.16
2018-04-20T11:45:04.398Z,24.17
2018-04-20T11:46:04.380Z,24.22
2018-04-20T11:47:04.364Z,24.14
2018-04-20T11:48:04.350Z,24.16
2018-04-20T11:49:04.334Z,24.14
2018-04-20T11:50:04.322Z,24.12
2018-04-20T11:51:04.307Z,24.05
2018-04-20T11:52:04.293Z,24.20
2018-04-20T11:53:04.277Z,24.26
2018-04-20T11:54:04.293Z,24.34
2018-04-20T11:55:04.248Z,24.29
2018-04-20T11:56:04.235Z,24.37
2018-04-20T11:57:04.221Z,24.54
2018-04-20T11:58:04.205Z,24.77
2018-04-20T11:59:04.193Z,24.77
2018-04-20T12:00:04.179Z,24.61
2018-04-20T12:01:04.162Z,24.53
2018-04-20T12:02:04.148Z,24.53
2018-04-20T12:03:04.135Z,24.54
2018-04-20T12:04:04.120Z,24.45
2018-04-20T12:05:04.106Z,24.23
2018-04-20T12:06:04.091Z,24.19
2018-04-20T12:07:04.077Z,24.22
2018-04-20T12:08:04.063Z,24.38
2018-04-20T12:09:04.048Z,24.49
2018-04-20T12:10:04.035Z,24.49
2018-04-20T12:11:04.020Z,24.53
2018-04-20T12:12:04.008Z,24.87
2018-04-20T12:13:03.993Z,24.68
2018-04-20T12:14:03.977Z,24.67
2018-04-20T12:15:03.965Z,24.53
2018-04-20T12:16:03.951Z,24.67
2018-04-20T12:17:03.936Z,24.76
2018-04-20T12:18:03.922Z,24.79
2018-04-20T12:19:03.908Z,24.92
2018-04-20T12:20:03.894Z,24.92
2018-04-20T12:21:03.880Z,24.91
2018-04-20T12:22:03.868Z,24.91
2018-04-20T12:23:03.857Z,25.07
2018-04-20T12:24:03.842Z,25.17
2018-04-20T12:25:03.829Z,25.20
2018-04-20T12:26:03.812Z,25.32
2018-04-20T12:27:03.798Z,25.22
2018-04-20T12:28:03.784Z,25.17
2018-04-20T12:29:03.772Z,25.20
2018-04-20T12:30:03.758Z,25.24
2018-04-20T12:31:03.743Z,25.47
2018-04-20T12:32:03.730Z,25.39
2018-04-20T12:33:03.715Z,25.34
2018-04-20T12:34:03.702Z,25.16
2018-04-20T12:35:03.689Z,25.16
2018-04-20T12:36:03.678Z,25.15
2018-04-20T12:37:03.660Z,25.20
2018-04-20T12:38:03.648Z,25.43
2018-04-20T12:39:03.677Z,25.30
2018-04-20T12:40:03.621Z,25.27
2018-04-20T12:41:03.607Z,25.16
2018-04-20T12:42:03.594Z,25.30
2018-04-20T12:43:03.584Z,25.37
2018-04-20T12:44:03.598Z,25.50
2018-04-20T12:45:03.554Z,25.56
2018-04-20T12:46:03.538Z,25.54
2018-04-20T12:47:03.525Z,25.62
2018-04-20T12:48:03.512Z,25.82
2018-04-20T12:49:03.498Z,25.74
2018-04-20T12:50:04.235Z,25.86
2018-04-20T12:51:03.473Z,25.80
2018-04-20T12:52:03.459Z,25.87